Time;durP1;ratioP1;P1;durP2;ratioP2;P2;SDS_P1;SDS_P2;PMS_P1;PMS_P2;Temp;Humidity;BMP_temperature;BMP_pressure;BME280_temperature;BME280_humidity;BME280_pressure;Samples;Min_cycle;Max_cycle;Signal;HPM_P1;HPM_P2
2022/06/05 00:02:45;;;;;;;7.67;6.67;;;;;;;12.00;82.50;101404.94;5094757;28;20420;-67
2022/06/05 00:05:20;;;;;;;10.40;6.47;;;;;;;12.05;82.10;101408.81;5093370;28;20039;-68
2022/06/05 00:08:04;;;;;;;7.30;6.53;;;;;;;12.15;81.94;101415.91;5093364;28;20441;-68
2022/06/05 00:10:38;;;;;;;11.10;7.63;;;;;;;12.16;82.02;101417.56;5094651;28;20402;-68
2022/06/05 00:13:22;;;;;;;14.17;6.93;;;;;;;12.21;82.13;101413.44;5094678;28;20176;-67
2022/06/05 00:16:16;;;;;;;8.50;7.70;;;;;;;12.21;81.91;101417.94;5094407;28;20051;-67
2022/06/05 00:18:45;;;;;;;10.67;7.60;;;;;;;12.25;82.16;101422.81;5094456;28;20040;-66
2022/06/05 00:21:12;;;;;;;11.17;8.83;;;;;;;12.22;82.33;101420.44;5094403;28;20063;-67
2022/06/05 00:23:38;;;;;;;9.20;8.00;;;;;;;12.21;82.89;101418.78;5094229;28;20036;-68
2022/06/05 00:26:25;;;;;;;10.37;8.80;;;;;;;12.22;83.17;101414.28;5094244;28;20050;-67
2022/06/05 00:29:16;;;;;;;11.47;9.07;;;;;;;12.22;83.36;101419.59;5093054;28;20087;-68
2022/06/05 00:31:48;;;;;;;9.17;8.20;;;;;;;12.26;83.00;101418.28;5094304;28;20039;-67
2022/06/05 00:34:13;;;;;;;9.90;8.47;;;;;;;12.30;82.66;101414.31;5094207;28;20372;-67
2022/06/05 00:36:39;;;;;;;12.00;10.03;;;;;;;12.37;82.50;101426.03;5094064;28;20085;-67
2022/06/05 00:39:27;;;;;;;9.13;8.10;;;;;;;12.35;82.72;101422.69;5093939;28;20038;-68
2022/06/05 00:42:06;;;;;;;9.03;8.13;;;;;;;12.33;82.82;101419.34;5094838;28;20487;-67
2022/06/05 00:44:46;;;;;;;11.20;8.57;;;;;;;12.27;82.76;101420.81;5094468;28;20032;-67
2022/06/05 00:47:16;;;;;;;9.10;8.10;;;;;;;12.23;82.95;101427.47;5093930;28;20115;-67
2022/06/05 00:49:48;;;;;;;9.60;8.57;;;;;;;12.26;83.27;101429.81;5093587;28;20062;-68
2022/06/05 00:52:15;;;;;;;11.07;9.97;;;;;;;12.24;83.23;101418.47;5092455;28;20135;-67
2022/06/05 00:54:41;;;;;;;11.03;8.87;;;;;;;12.26;82.75;101427.16;5093697;28;20040;-68
2022/06/05 00:57:10;;;;;;;10.63;9.50;;;;;;;12.32;82.85;101431.00;5093491;28;20032;-68
2022/06/05 00:59:38;;;;;;;12.67;8.77;;;;;;;12.33;82.60;101427.34;5091939;28;20036;-67
2022/06/05 01:02:04;;;;;;;10.23;8.80;;;;;;;12.29;82.62;101420.66;5093616;28;20040;-67
2022/06/05 01:04:32;;;;;;;11.50;9.83;;;;;;;12.24;82.44;101413.13;5093634;28;20040;-67
2022/06/05 01:06:58;;;;;;;10.70;9.33;;;;;;;12.37;82.42;101437.56;5093898;28;20035;-67
2022/06/05 01:09:24;;;;;;;10.77;7.93;;;;;;;12.37;82.30;101428.69;5093328;28;20028;-68
2022/06/05 01:12:00;;;;;;;10.33;8.73;;;;;;;12.38;82.25;101419.69;5093261;28;20402;-67
2022/06/05 01:14:56;;;;;;;10.43;8.77;;;;;;;12.45;82.05;101434.13;5093486;28;20129;-67
2022/06/05 01:17:51;;;;;;;10.47;9.10;;;;;;;12.42;82.07;101431.72;5093456;28;20052;-67
2022/06/05 01:20:20;;;;;;;11.37;8.33;;;;;;;12.43;82.01;101428.06;5093095;28;20031;-67
2022/06/05 01:23:08;;;;;;;9.90;8.63;;;;;;;12.44;82.29;101426.25;5092937;28;20031;-66
2022/06/05 01:25:36;;;;;;;;;;;;;;;12.49;82.08;101426.63;5093803;28;20032;-67
2022/06/05 01:28:08;;;;;;;11.52;8.30;;;;;;;12.20;82.43;101385.06;5093607;28;19916;-67
2022/06/05 01:30:45;;;;;;;7.57;6.80;;;;;;;12.42;82.38;101421.03;5093220;28;20043;-66
2022/06/05 01:33:19;;;;;;;9.17;7.37;;;;;;;12.35;82.08;101409.31;5093045;28;20047;-67
2022/06/05 01:36:13;;;;;;;11.13;7.37;;;;;;;12.33;82.68;101419.34;5093017;28;20472;-66
2022/06/05 01:38:39;;;;;;;8.97;7.93;;;;;;;12.30;82.50;101416.97;5092914;28;20039;-65
2022/06/05 01:41:15;;;;;;;9.47;7.90;;;;;;;12.35;82.44;101425.34;5092626;28;20032;-68
2022/06/05 01:43:47;;;;;;;9.37;8.00;;;;;;;12.34;82.75;101423.69;5092718;28;20059;-67
2022/06/05 01:46:29;;;;;;;10.80;7.13;;;;;;;12.05;82.82;101381.28;5092789;28;20429;-69
2022/06/05 01:49:13;;;;;;;11.23;7.07;;;;;;;12.38;82.67;101428.53;5092739;28;20036;-67
2022/06/05 01:52:14;;;;;;;9.53;8.40;;;;;;;12.47;82.36;101429.44;5092482;28;20047;-67
2022/06/05 01:54:45;;;;;;;7.97;6.53;;;;;;;12.54;82.15;101438.50;5092503;28;20090;-66
2022/06/05 01:57:13;;;;;;;9.23;7.50;;;;;;;12.56;81.82;101439.19;5092586;28;20380;-66
2022/06/05 01:59:42;;;;;;;9.52;8.02;;;;;;;12.66;81.56;101441.72;5092717;28;20134;-67
2022/06/05 02:02:14;;;;;;;9.02;7.22;;;;;;;12.74;81.59;101435.59;5092352;28;20126;-68
2022/06/05 02:04:46;;;;;;;9.80;7.73;;;;;;;12.81;81.44;101439.28;5092328;28;20036;-66
2022/06/05 02:07:21;;;;;;;9.83;7.20;;;;;;;12.82;81.07;101443.63;5093088;28;20114;-67
2022/06/05 02:10:03;;;;;;;7.13;6.43;;;;;;;12.86;80.93;101436.97;5090699;28;20043;-67
2022/06/05 02:12:29;;;;;;;8.90;6.80;;;;;;;12.89;80.80;101434.81;5092091;28;20032;-66
2022/06/05 02:14:56;;;;;;;8.10;6.10;;;;;;;12.86;80.61;101439.66;5092637;28;20051;-69
2022/06/05 02:17:22;;;;;;;9.63;6.87;;;;;;;12.91;80.53;101435.47;5092363;28;20122;-67
2022/06/05 02:19:48;;;;;;;10.30;7.00;;;;;;;13.08;80.18;101438.22;5092020;28;20111;-67
2022/06/05 02:22:29;;;;;;;7.80;6.77;;;;;;;13.24;79.27;101433.78;5092140;28;20028;-66
2022/06/05 02:24:55;;;;;;;7.27;6.07;;;;;;;13.39;78.73;101441.19;5090924;28;20123;-66
2022/06/05 02:27:23;;;;;;;7.73;4.63;;;;;;;13.49;78.27;101441.84;5092103;28;20542;-67
2022/06/05 02:29:50;;;;;;;10.05;6.90;;;;;;;13.49;78.42;101440.03;5092754;28;20060;-73
2022/06/05 02:32:36;;;;;;;7.67;5.30;;;;;;;13.61;77.79;101445.91;5091865;28;20411;-68
2022/06/05 02:35:23;;;;;;;9.77;6.40;;;;;;;13.64;77.53;101448.25;5090951;28;20078;-66
2022/06/05 02:37:52;;;;;;;8.40;5.97;;;;;;;13.62;77.68;101448.41;5091968;28;20089;-67
2022/06/05 02:40:17;;;;;;;6.57;4.50;;;;;;;13.79;77.31;101437.69;5091946;28;20039;-66
2022/06/05 02:43:18;;;;;;;7.47;4.73;;;;;;;14.01;76.65;101441.56;5092419;28;20036;-67
2022/06/05 02:45:51;;;;;;;8.10;4.40;;;;;;;14.05;76.17;101442.88;5086954;28;20050;-67
2022/06/05 02:48:36;;;;;;;4.97;4.47;;;;;;;14.07;76.24;101443.56;5091715;28;20031;-68
2022/06/05 02:51:07;;;;;;;6.37;5.00;;;;;;;14.05;76.31;101448.25;5091813;28;20070;-67
2022/06/05 02:54:02;;;;;;;5.63;5.13;;;;;;;14.17;75.93;101441.56;5091843;28;20043;-67
2022/06/05 02:56:30;;;;;;;6.03;4.90;;;;;;;14.16;75.47;101442.53;5074071;28;20431;-67
2022/06/05 02:58:59;;;;;;;6.63;5.05;;;;;;;14.20;75.58;101441.22;5091974;28;20060;-66
2022/06/05 03:04:08;;;;;;;7.60;5.30;;;;;;;14.88;73.40;101440.72;5091706;28;20039;-66
2022/06/05 03:06:39;;;;;;;7.07;5.67;;;;;;;15.24;71.93;101445.56;5091786;28;20024;-68
2022/06/05 03:09:06;;;;;;;8.40;6.20;;;;;;;15.69;70.18;101445.63;5091511;28;20398;-69
2022/06/05 03:11:32;;;;;;;5.13;4.60;;;;;;;16.66;67.44;101453.81;5091673;28;20032;-65
2022/06/05 03:14:01;;;;;;;7.10;4.90;;;;;;;16.89;65.55;101443.78;5091620;28;20434;-67
2022/06/05 03:16:28;;;;;;;7.68;4.90;;;;;;;16.94;65.69;101438.69;5091644;28;20047;-66
2022/06/05 03:18:54;;;;;;;9.77;5.37;;;;;;;17.63;64.12;101441.72;5091519;28;20051;-68
2022/06/05 03:21:19;;;;;;;5.27;4.23;;;;;;;18.79;60.43;101453.88;5092947;28;20399;-67
2022/06/05 03:23:45;;;;;;;6.93;4.30;;;;;;;19.36;57.70;101449.91;5095389;28;20036;-68
2022/06/05 03:26:12;;;;;;;5.77;4.00;;;;;;;19.46;57.25;101461.19;5095499;28;20085;-67
2022/06/05 03:28:38;;;;;;;5.67;3.90;;;;;;;18.54;59.72;101449.97;5095459;28;20126;-67
2022/06/05 03:31:07;;;;;;;5.63;3.90;;;;;;;17.48;62.76;101459.81;5095433;28;20074;-68
2022/06/05 03:33:32;;;;;;;4.38;3.97;;;;;;;16.77;65.34;101464.13;5095176;28;20043;-67
2022/06/05 03:35:58;;;;;;;5.87;4.43;;;;;;;16.43;66.43;101449.31;5095172;28;20040;-68
2022/06/05 03:38:23;;;;;;;7.80;4.50;;;;;;;16.42;66.87;101447.66;5095285;28;20123;-68
2022/06/05 03:40:49;;;;;;;5.60;4.93;;;;;;;16.30;67.28;101461.72;5095272;28;20127;-67
2022/06/05 03:43:15;;;;;;;5.40;4.00;;;;;;;16.13;68.07;101458.34;5093878;28;20036;-68
2022/06/05 03:45:42;;;;;;;9.20;4.63;;;;;;;16.04;68.50;101459.44;5093636;28;20039;-66
2022/06/05 03:48:08;;;;;;;5.60;4.23;;;;;;;15.74;69.71;101445.09;5094899;28;20040;-67
2022/06/05 03:50:37;;;;;;;8.30;5.00;;;;;;;15.57;69.84;101455.06;5093546;28;20089;-67
2022/06/05 03:53:02;;;;;;;6.03;4.03;;;;;;;15.52;70.44;101449.41;5094743;28;20075;-66
2022/06/05 03:55:28;;;;;;;7.30;4.87;;;;;;;15.60;70.09;101446.69;5094879;28;20063;-68
2022/06/05 03:57:53;;;;;;;5.50;4.70;;;;;;;15.74;70.39;101448.63;5094769;28;20048;-67
2022/06/05 04:00:21;;;;;;;4.30;3.80;;;;;;;15.84;69.72;101447.53;5094811;28;20036;-67
2022/06/05 04:02:47;;;;;;;7.80;4.77;;;;;;;15.88;69.40;101443.47;5094758;28;20418;-67
2022/06/05 04:05:20;;;;;;;7.00;4.33;;;;;;;16.02;69.09;101445.38;5094364;28;20036;-67
2022/06/05 04:07:45;;;;;;;4.50;3.90;;;;;;;16.40;68.14;101444.31;5094787;28;20032;-65
2022/06/05 04:10:14;;;;;;;5.80;4.20;;;;;;;16.88;66.36;101452.88;5076629;28;20042;-69
2022/06/05 04:12:40;;;;;;;3.72;3.42;;;;;;;17.16;65.77;101439.56;5094829;28;20047;-66
2022/06/05 04:15:09;;;;;;;4.50;3.47;;;;;;;17.32;64.87;101443.88;5094545;28;20380;-67
2022/06/05 04:17:35;;;;;;;4.77;4.13;;;;;;;17.12;65.64;101450.91;5094471;28;20048;-66
2022/06/05 04:20:01;;;;;;;5.53;3.90;;;;;;;17.00;65.87;101451.38;5093425;28;20383;-68
2022/06/05 04:22:26;;;;;;;3.50;3.20;;;;;;;16.82;66.65;101445.56;5094432;28;20028;-67
2022/06/05 04:24:52;;;;;;;5.30;3.50;;;;;;;16.99;66.06;101449.69;5094487;28;20039;-67
2022/06/05 04:27:18;;;;;;;3.97;3.37;;;;;;;17.02;65.74;101449.31;5094366;28;20036;-67
2022/06/05 04:29:43;;;;;;;3.80;3.23;;;;;;;16.89;66.50;101456.41;5092906;28;20517;-66
2022/06/05 04:32:08;;;;;;;4.30;3.10;;;;;;;16.61;66.72;101450.81;5093488;28;20040;-68
2022/06/05 04:34:35;;;;;;;6.63;3.73;;;;;;;16.49;67.59;101452.31;5093850;28;20391;-67
2022/06/05 04:37:00;;;;;;;3.87;3.50;;;;;;;16.26;68.35;101445.13;5094336;28;20035;-65
2022/06/05 04:39:26;;;;;;;5.07;3.63;;;;;;;16.25;68.25;101423.81;5094194;28;20518;-66
2022/06/05 04:41:51;;;;;;;5.20;3.73;;;;;;;16.67;67.66;101444.72;5093941;28;20483;-68
2022/06/05 04:44:17;;;;;;;4.67;3.63;;;;;;;17.22;66.30;101443.34;5092844;28;20439;-66
2022/06/05 04:46:44;;;;;;;6.17;3.70;;;;;;;17.77;63.99;101434.63;5093952;28;20491;-67
2022/06/05 04:49:10;;;;;;;4.90;4.10;;;;;;;18.09;62.96;101446.72;5093677;28;20036;-67
2022/06/05 04:51:37;;;;;;;4.27;3.87;;;;;;;18.61;61.69;101441.91;5093876;28;20030;-68
2022/06/05 04:54:05;;;;;;;7.70;3.57;;;;;;;19.79;57.69;101445.06;5093694;28;20039;-68
2022/06/05 04:56:32;;;;;;;4.47;3.20;;;;;;;20.78;55.08;101440.59;5093919;28;20135;-67
2022/06/05 04:59:00;;;;;;;3.70;2.77;;;;;;;20.97;54.50;101437.00;5093779;28;20121;-66
2022/06/05 05:01:29;;;;;;;4.18;2.83;;;;;;;20.83;54.92;101444.34;5093668;28;20081;-68
2022/06/05 05:03:58;;;;;;;7.45;3.33;;;;;;;20.68;54.85;101450.00;5093668;28;20032;-67
2022/06/05 05:06:25;;;;;;;5.13;3.70;;;;;;;20.54;55.28;101437.56;5093298;28;20024;-67
2022/06/05 05:08:51;;;;;;;7.07;3.00;;;;;;;20.39;55.15;101445.88;5092290;28;20032;-67
2022/06/05 05:11:17;;;;;;;4.72;3.10;;;;;;;20.16;56.02;101436.53;5093597;28;20035;-67
2022/06/05 05:13:43;;;;;;;5.20;3.60;;;;;;;19.80;57.13;101441.31;5093461;28;20052;-67
2022/06/05 05:16:08;;;;;;;4.82;3.08;;;;;;;19.21;58.79;101441.16;5093224;28;20040;-66
2022/06/05 05:18:34;;;;;;;5.03;3.33;;;;;;;18.86;59.96;101443.13;5093431;28;20032;-68
2022/06/05 05:21:08;;;;;;;3.63;3.00;;;;;;;18.58;60.90;101437.75;5093105;28;20169;-69
2022/06/05 05:23:35;;;;;;;5.27;2.97;;;;;;;18.36;61.52;101455.84;5092785;28;20032;-66
2022/06/05 05:26:13;;;;;;;7.23;3.60;;;;;;;18.04;62.80;101435.69;5092571;28;20032;-67
2022/06/05 05:28:39;;;;;;;4.50;3.17;;;;;;;18.03;63.21;101450.22;5091243;28;20028;-67
2022/06/05 05:31:10;;;;;;;7.40;3.50;;;;;;;18.10;63.11;101456.47;5092816;28;20111;-65
2022/06/05 05:33:36;;;;;;;5.37;3.23;;;;;;;18.05;63.35;101456.25;5092840;28;20050;-67
2022/06/05 05:36:02;;;;;;;4.03;3.20;;;;;;;17.99;63.70;101448.94;5092628;28;20028;-66
2022/06/05 05:38:27;;;;;;;3.93;3.60;;;;;;;18.04;63.31;101454.56;5092314;28;20039;-65
2022/06/05 05:43:37;;;;;;;6.60;3.47;;;;;;;18.10;63.39;101458.34;5092252;28;20481;-69
2022/06/05 05:46:08;;;;;;;5.07;4.25;;;;;;;17.90;63.86;101452.78;5092342;28;20110;-66
2022/06/05 05:48:33;;;;;;;3.70;3.07;;;;;;;17.94;64.04;101460.31;5093133;28;20056;-67
2022/06/05 05:50:59;;;;;;;4.80;3.80;;;;;;;17.90;63.89;101460.84;5092259;28;20077;-68
2022/06/05 05:53:25;;;;;;;6.27;3.73;;;;;;;17.86;64.22;101473.88;5092143;28;20416;-66
2022/06/05 05:55:50;;;;;;;4.40;3.60;;;;;;;17.79;64.09;101466.78;5092256;28;20101;-63
2022/06/05 05:58:15;;;;;;;3.87;3.13;;;;;;;17.81;64.25;101475.50;5091096;28;20154;-65
2022/06/05 06:00:41;;;;;;;5.07;3.67;;;;;;;17.90;63.20;101474.34;5092393;28;20101;-65
2022/06/05 06:03:07;;;;;;;5.57;3.10;;;;;;;17.87;63.92;101474.72;5092404;28;20036;-66
2022/06/05 06:05:32;;;;;;;6.30;3.87;;;;;;;17.73;63.75;101471.09;5092160;28;20036;-70
2022/06/05 06:07:59;;;;;;;6.97;3.87;;;;;;;17.78;64.58;101471.34;5091064;28;20063;-68
2022/06/05 06:10:25;;;;;;;7.57;3.27;;;;;;;17.79;64.01;101466.78;5090655;28;20036;-72
2022/06/05 06:12:50;;;;;;;8.18;3.30;;;;;;;17.88;63.02;101479.91;5082958;28;20500;-70
2022/06/05 06:15:18;;;;;;;3.83;3.38;;;;;;;17.85;63.60;101482.16;5071948;28;20052;-67
2022/06/05 06:17:43;;;;;;;3.70;3.03;;;;;;;17.81;63.89;101480.88;5072314;28;20048;-64
2022/06/05 06:20:12;;;;;;;4.13;3.33;;;;;;;17.82;63.49;101482.56;5072236;28;20040;-66
2022/06/05 06:22:38;;;;;;;4.37;3.47;;;;;;;17.71;64.06;101480.38;5071856;28;20060;-66
2022/06/05 06:25:05;;;;;;;5.07;3.27;;;;;;;17.69;63.60;101488.66;5069979;28;20447;-64
2022/06/05 06:27:31;;;;;;;4.03;3.13;;;;;;;17.69;63.92;101477.06;5088225;28;20063;-67
2022/06/05 06:29:56;;;;;;;4.63;3.27;;;;;;;17.66;64.40;101483.63;5090709;28;20491;-65
2022/06/05 06:32:22;;;;;;;3.80;3.33;;;;;;;17.63;64.64;101481.28;5090581;28;20055;-65
2022/06/05 06:34:47;;;;;;;5.40;3.70;;;;;;;17.60;64.40;101482.50;5091999;28;20036;-65
2022/06/05 06:37:13;;;;;;;5.00;2.90;;;;;;;17.57;64.60;101477.50;5090982;28;20028;-67
2022/06/05 06:39:39;;;;;;;5.90;3.40;;;;;;;17.69;65.00;101485.13;5091187;28;20044;-66
2022/06/05 06:42:04;;;;;;;4.67;3.20;;;;;;;17.64;64.46;101470.34;5091378;28;20135;-65
2022/06/05 06:44:30;;;;;;;8.80;3.77;;;;;;;17.65;64.33;101487.34;5090491;28;20044;-64
2022/06/05 06:46:55;;;;;;;4.68;3.25;;;;;;;17.63;64.03;101487.50;5091723;28;20071;-72
2022/06/05 06:49:21;;;;;;;4.15;3.60;;;;;;;17.10;64.35;101434.94;5092750;28;20063;-63
2022/06/05 06:51:46;;;;;;;5.10;3.15;;;;;;;17.30;65.46;101481.75;5091855;28;20086;-67
2022/06/05 06:54:12;;;;;;;5.73;3.30;;;;;;;17.37;64.57;101495.31;5092123;28;20088;-66
2022/06/05 06:56:38;;;;;;;4.60;3.20;;;;;;;17.49;64.12;101493.78;5094203;28;20036;-67
2022/06/05 06:59:05;;;;;;;3.90;3.23;;;;;;;17.47;64.08;101490.47;5096269;28;20100;-69
2022/06/05 07:01:33;;;;;;;4.45;3.85;;;;;;;17.38;63.91;101491.59;5096072;28;20073;-68
2022/06/05 07:03:59;;;;;;;4.73;3.70;;;;;;;17.39;64.95;101504.03;5095437;28;20043;-69
2022/06/05 07:06:24;;;;;;;4.73;3.37;;;;;;;17.35;64.95;101508.13;5095970;28;20032;-70
2022/06/05 07:08:51;;;;;;;7.60;3.87;;;;;;;17.29;65.30;101509.69;5095623;28;20028;-69
2022/06/05 07:11:18;;;;;;;4.27;3.23;;;;;;;17.17;65.11;101508.53;5095892;28;20510;-66
2022/06/05 07:13:44;;;;;;;5.60;3.00;;;;;;;17.14;64.94;101508.06;5096273;28;20044;-66
2022/06/05 07:16:13;;;;;;;4.90;3.33;;;;;;;17.03;66.29;101510.19;5096288;28;20546;-74
2022/06/05 07:18:39;;;;;;;4.73;3.43;;;;;;;17.10;65.68;101509.47;5096295;28;20032;-67
2022/06/05 07:21:13;;;;;;;5.40;3.27;;;;;;;17.20;64.93;101505.47;5096713;28;20046;-71
2022/06/05 07:23:39;;;;;;;4.43;3.40;;;;;;;17.41;65.10;101510.06;5094851;28;20043;-71
2022/06/05 07:26:09;;;;;;;9.40;2.97;;;;;;;17.67;64.43;101512.25;5089967;28;20040;-68
2022/06/05 07:28:35;;;;;;;4.70;3.47;;;;;;;17.89;64.37;101499.63;5084852;28;20509;-70
2022/06/05 07:31:02;;;;;;;3.90;3.40;;;;;;;18.27;62.82;101521.75;5100280;28;20060;-70
2022/06/05 07:33:31;;;;;;;4.27;2.90;;;;;;;18.51;61.74;101520.50;5097430;28;20040;-78
2022/06/05 07:35:58;;;;;;;4.43;3.00;;;;;;;18.58;60.62;101521.38;5095538;28;20375;-70
2022/06/05 07:38:24;;;;;;;3.60;2.90;;;;;;;18.62;60.96;101535.28;5095338;28;20089;-72
2022/06/05 07:40:49;;;;;;;4.32;3.75;;;;;;;18.58;60.32;101526.75;5096841;28;20042;-76
2022/06/05 07:43:15;;;;;;;5.13;3.30;;;;;;;18.51;60.32;101521.31;5100516;28;20036;-72
2022/06/05 07:45:44;;;;;;;6.47;3.75;;;;;;;18.64;60.59;101533.25;5094438;28;20436;-71
2022/06/05 07:48:10;;;;;;;6.95;2.90;;;;;;;18.79;59.97;101529.44;5093794;28;20048;-72
2022/06/05 07:54:26;;;;;;;3.13;2.83;;;;;;;18.77;59.88;101526.06;5074841;28;20044;-70
2022/06/05 07:56:05;;;;;;;5.35;3.00;;;;;;;18.74;59.23;101536.44;5080442;28;20510;-71
2022/06/05 07:58:30;;;;;;;6.97;3.22;;;;;;;18.67;60.22;101544.50;5084093;28;20048;-70
2022/06/05 08:00:56;;;;;;;5.72;3.22;;;;;;;18.63;61.31;101543.22;5079818;28;20048;-68
2022/06/05 08:03:23;;;;;;;3.83;2.97;;;;;;;18.63;60.84;101548.63;5085607;28;20780;-73
2022/06/05 08:05:48;;;;;;;4.15;3.08;;;;;;;18.71;59.77;101536.84;5091531;28;20036;-73
2022/06/05 08:08:14;;;;;;;6.53;2.95;;;;;;;18.78;59.23;101543.09;5079254;28;20056;-74
2022/06/05 08:10:39;;;;;;;3.78;3.42;;;;;;;18.81;58.26;101548.97;5090564;28;20455;-68
2022/06/05 08:13:08;;;;;;;4.60;4.05;;;;;;;18.92;58.60;101547.56;5093912;28;20052;-69
2022/06/05 08:15:34;;;;;;;3.38;2.80;;;;;;;18.91;59.34;101553.16;5094975;28;20120;-69
2022/06/05 08:17:59;;;;;;;6.43;3.85;;;;;;;18.85;59.19;101552.94;5094909;28;20399;-68
2022/06/05 08:20:25;;;;;;;6.55;3.35;;;;;;;18.74;59.60;101550.75;5100824;28;20084;-70
2022/06/05 08:22:51;;;;;;;3.92;2.85;;;;;;;18.62;59.70;101548.78;5094829;28;20044;-72
2022/06/05 08:25:19;;;;;;;5.57;3.80;;;;;;;18.56;60.35;101551.25;5094348;28;20489;-72
2022/06/05 08:27:46;;;;;;;5.88;3.58;;;;;;;18.45;60.69;101553.63;5094726;28;20068;-72
2022/06/05 08:30:12;;;;;;;7.53;2.90;;;;;;;18.39;60.99;101560.63;5094815;28;20044;-66
2022/06/05 08:32:37;;;;;;;6.20;3.55;;;;;;;18.24;61.59;101549.94;5094500;28;20491;-65
2022/06/05 08:35:03;;;;;;;3.50;3.10;;;;;;;18.18;61.41;101564.16;5093796;28;20119;-64
2022/06/05 08:43:23;;;;;;;7.10;2.97;;;;;;;18.25;60.77;101557.00;5095044;28;20035;-65
2022/06/05 08:46:04;;;;;;;3.42;2.70;;;;;;;18.25;61.49;101550.78;5095204;28;20071;-65
2022/06/05 08:48:44;;;;;;;3.90;3.03;;;;;;;18.27;60.72;101554.94;5094047;28;20032;-65
2022/06/05 08:51:43;;;;;;;6.32;3.20;;;;;;;18.30;60.98;101550.19;5092831;28;20024;-65
2022/06/05 08:54:23;;;;;;;5.80;2.90;;;;;;;18.34;58.82;101554.16;5092877;28;20036;-66
2022/06/05 08:57:04;;;;;;;9.75;3.03;;;;;;;18.16;57.92;101555.44;5092251;28;20032;-64
2022/06/05 08:59:46;;;;;;;3.70;2.47;;;;;;;18.01;57.08;101554.69;5091552;28;20034;-65
2022/06/05 09:02:24;;;;;;;3.30;2.10;;;;;;;17.88;56.79;101549.97;5091886;28;20036;-64
2022/06/05 09:05:39;;;;;;;7.13;2.65;;;;;;;17.90;57.85;101555.16;5093459;28;20058;-65
2022/06/05 09:08:15;;;;;;;7.68;2.70;;;;;;;18.01;58.26;101551.16;5093686;28;20047;-64
2022/06/05 09:10:54;;;;;;;8.02;2.30;;;;;;;18.06;58.98;101543.31;5092406;28;20095;-66
2022/06/05 09:13:26;;;;;;;3.83;1.95;;;;;;;18.17;58.12;101554.41;5093251;28;20097;-66
2022/06/05 09:15:58;;;;;;;3.50;2.20;;;;;;;18.08;58.19;101547.50;5093595;28;20062;-64
2022/06/05 09:18:29;;;;;;;3.22;2.92;;;;;;;17.96;58.29;101540.97;5093352;28;20036;-67
2022/06/05 09:21:05;;;;;;;2.55;2.35;;;;;;;18.04;58.22;101548.91;5092231;28;20115;-65
2022/06/05 09:23:44;;;;;;;3.00;2.22;;;;;;;17.94;58.99;101540.31;5093584;28;20036;-65
2022/06/05 09:26:49;;;;;;;4.15;2.13;;;;;;;17.97;58.49;101545.31;5093017;28;20051;-64
2022/06/05 09:29:30;;;;;;;4.03;2.45;;;;;;;17.91;59.59;101549.59;5074346;28;20380;-67
2022/06/05 09:32:02;;;;;;;4.55;2.55;;;;;;;17.89;58.27;101543.56;5093113;28;20047;-65
2022/06/05 09:34:36;;;;;;;5.03;2.63;;;;;;;17.88;58.82;101543.75;5092855;28;20169;-64
2022/06/05 09:37:19;;;;;;;3.10;2.80;;;;;;;17.59;58.13;101515.84;5093296;28;20031;-66
2022/06/05 09:39:52;;;;;;;7.57;2.55;;;;;;;17.75;58.15;101532.84;5092922;28;20407;-65
2022/06/05 09:42:41;;;;;;;2.38;2.15;;;;;;;17.84;59.19;101524.44;5093495;28;20043;-64
2022/06/05 09:45:28;;;;;;;1.98;1.80;;;;;;;17.88;58.35;101531.13;5094097;28;20032;-63
2022/06/05 09:47:53;;;;;;;4.03;3.35;;;;;;;17.89;58.62;101531.94;5093905;28;20560;-64
2022/06/05 09:50:25;;;;;;;2.75;2.42;;;;;;;18.02;57.81;101537.50;5093387;28;20039;-63
2022/06/05 09:52:51;;;;;;;2.58;2.15;;;;;;;18.14;56.81;101530.53;5092405;28;20118;-65
2022/06/05 09:55:51;;;;;;;7.25;2.15;;;;;;;18.29;56.57;101537.72;5094293;28;20036;-63
2022/06/05 09:58:48;;;;;;;6.00;2.80;;;;;;;18.18;56.46;101536.38;5089774;28;20055;-65
2022/06/05 10:01:29;;;;;;;8.13;2.85;;;;;;;18.14;56.50;101535.09;5058583;28;20048;-65
2022/06/05 10:03:57;;;;;;;3.97;2.05;;;;;;;18.10;56.79;101533.81;5092748;28;20028;-64
2022/06/05 10:06:42;;;;;;;4.97;2.47;;;;;;;18.18;57.10;101550.69;5091249;28;20040;-66
2022/06/05 10:09:16;;;;;;;4.25;1.95;;;;;;;18.14;54.98;101541.31;5092492;28;20038;-63
2022/06/05 10:11:54;;;;;;;5.43;3.08;;;;;;;18.18;56.21;101537.22;5091910;28;20510;-67
2022/06/05 10:14:50;;;;;;;4.15;2.88;;;;;;;18.31;55.81;101535.66;5092050;28;20056;-68
2022/06/05 10:17:31;;;;;;;2.28;2.03;;;;;;;18.49;55.48;101539.53;5091090;28;20056;-63
2022/06/05 10:20:20;;;;;;;3.83;2.33;;;;;;;18.62;54.63;101541.56;5092176;28;20040;-65
2022/06/05 10:23:10;;;;;;;2.97;1.58;;;;;;;18.61;53.45;101547.13;5092488;28;20040;-64
2022/06/05 10:26:09;;;;;;;1.83;1.50;;;;;;;18.46;54.23;101544.50;5092372;28;20035;-63
2022/06/05 10:28:39;;;;;;;6.93;2.35;;;;;;;18.41;54.54;101542.38;5092073;28;20398;-65
2022/06/05 10:31:10;;;;;;;4.25;2.22;;;;;;;18.40;53.99;101534.50;5091752;28;20040;-64
2022/06/05 10:33:42;;;;;;;4.45;2.10;;;;;;;18.55;54.05;101548.75;5090982;28;20084;-65
2022/06/05 10:36:13;;;;;;;5.50;2.63;;;;;;;18.71;53.67;101551.16;5092459;28;20063;-66
2022/06/05 10:38:53;;;;;;;1.75;1.58;;;;;;;18.93;52.75;101561.91;5092381;28;20036;-65
2022/06/05 10:41:30;;;;;;;2.00;1.90;;;;;;;19.07;52.75;101558.22;5092087;28;20534;-64
2022/06/05 10:44:19;;;;;;;2.42;2.15;;;;;;;19.26;51.50;101556.69;5091979;28;20043;-66
2022/06/05 10:47:01;;;;;;;2.30;1.63;;;;;;;19.44;50.78;101547.00;5092244;28;20176;-65
2022/06/05 10:49:42;;;;;;;2.55;1.42;;;;;;;19.73;48.56;101548.59;5091902;28;20043;-66
2022/06/05 10:52:13;;;;;;;3.80;1.75;;;;;;;19.74;47.96;101544.03;5090645;28;20434;-65
2022/06/05 10:55:08;;;;;;;2.13;1.90;;;;;;;19.82;48.77;101549.22;5092007;28;20394;-66
2022/06/05 10:57:38;;;;;;;7.03;2.30;;;;;;;19.94;48.31;101560.25;5074355;28;20077;-63
2022/06/05 11:00:22;;;;;;;3.35;1.70;;;;;;;20.22;47.33;101554.69;5090758;28;20509;-68
2022/06/05 11:02:53;;;;;;;4.53;2.80;;;;;;;20.00;47.01;101556.75;5092054;28;20044;-65
2022/06/05 11:05:43;;;;;;;4.28;1.60;;;;;;;20.04;46.92;101556.16;5091706;28;20071;-67
2022/06/05 11:08:35;;;;;;;6.10;1.55;;;;;;;20.05;45.46;101559.69;5091917;28;20093;-65
2022/06/05 11:14:26;;;;;;;2.78;1.73;;;;;;;19.93;46.49;101561.31;5091327;28;20525;-65
2022/06/05 11:16:55;;;;;;;2.40;1.08;;;;;;;19.71;46.28;101563.34;5091783;28;20058;-65
2022/06/05 11:19:27;;;;;;;3.08;1.35;;;;;;;19.56;46.47;101562.66;5092033;28;20093;-64
2022/06/05 11:21:56;;;;;;;2.25;1.70;;;;;;;19.60;45.94;101564.75;5091805;28;20043;-64
2022/06/05 11:24:33;;;;;;;;;;;;;;;19.76;46.78;101563.56;5092210;28;20044;-67
2022/06/05 11:27:43;;;;;;;4.60;1.38;;;;;;;19.74;46.79;101561.06;5091385;28;19916;-66
2022/06/05 11:30:19;;;;;;;2.35;1.45;;;;;;;19.70;46.33;101564.38;5090561;28;20165;-66
2022/06/05 11:33:04;;;;;;;3.20;2.03;;;;;;;19.74;45.68;101562.94;5090026;28;20040;-65
2022/06/05 11:36:14;;;;;;;2.70;1.50;;;;;;;19.92;46.36;101570.44;5091286;28;20039;-65
2022/06/05 11:39:04;;;;;;;5.75;1.67;;;;;;;19.87;45.42;101570.22;5091957;28;20035;-63
2022/06/05 11:41:43;;;;;;;3.22;1.52;;;;;;;19.95;45.74;101568.19;5091178;28;20034;-67
2022/06/05 11:44:21;;;;;;;11.55;3.03;;;;;;;20.03;45.24;101570.69;5095199;28;20036;-67
2022/06/05 11:47:01;;;;;;;9.48;2.00;;;;;;;20.17;44.63;101581.53;5095357;28;20028;-65
2022/06/05 11:50:04;;;;;;;4.90;1.35;;;;;;;20.26;44.13;101569.50;5095088;28;20044;-63
2022/06/05 11:52:55;;;;;;;3.25;1.50;;;;;;;19.96;44.64;101569.88;5095156;28;20054;-63
2022/06/05 11:55:30;;;;;;;3.90;1.23;;;;;;;19.86;45.00;101565.88;5095223;28;20448;-65
2022/06/05 11:58:13;;;;;;;6.32;2.10;;;;;;;19.79;45.94;101574.81;5095407;28;20032;-65
2022/06/05 12:00:50;;;;;;;5.32;2.10;;;;;;;19.88;46.09;101571.91;5082821;28;20578;-65
2022/06/05 12:03:34;;;;;;;5.53;1.67;;;;;;;19.93;46.58;101575.66;5095413;28;20089;-63
2022/06/05 12:06:21;;;;;;;3.53;1.90;;;;;;;19.82;47.01;101580.84;5076678;28;20028;-66
2022/06/05 12:09:17;;;;;;;4.80;1.48;;;;;;;19.54;47.35;101586.34;5095043;28;20098;-64